sensor_id;sensor_type;location;lat;lon;timestamp;P1;durP1;ratioP1;P2;durP2;ratioP2
3101;SDS011;1561;42.666;23.392;2022-08-01T00:00:27;5.53;;;5.13;;
3101;SDS011;1561;42.666;23.392;2022-08-01T00:03:17;4.90;;;4.47;;
3101;SDS011;1561;42.666;23.392;2022-08-01T00:05:55;4.70;;;4.35;;
3101;SDS011;1561;42.666;23.392;2022-08-01T00:08:34;5.18;;;4.78;;
3101;SDS011;1561;42.666;23.392;2022-08-01T00:11:18;8.75;;;8.15;;
3101;SDS011;1561;42.666;23.392;2022-08-01T00:13:52;10.63;;;9.82;;
3101;SDS011;1561;42.666;23.392;2022-08-01T00:16:25;11.48;;;10.57;;
3101;SDS011;1561;42.666;23.392;2022-08-01T00:19:01;12.23;;;11.18;;
3101;SDS011;1561;42.666;23.392;2022-08-01T00:21:30;12.60;;;11.60;;
3101;SDS011;1561;42.666;23.392;2022-08-01T00:24:04;12.07;;;10.75;;
3101;SDS011;1561;42.666;23.392;2022-08-01T00:29:22;10.93;;;10.02;;
3101;SDS011;1561;42.666;23.392;2022-08-01T00:32:00;12.10;;;11.18;;
3101;SDS011;1561;42.666;23.392;2022-08-01T00:34:32;11.95;;;10.93;;
3101;SDS011;1561;42.666;23.392;2022-08-01T00:37:22;11.65;;;10.50;;
3101;SDS011;1561;42.666;23.392;2022-08-01T00:39:57;11.25;;;10.35;;
3101;SDS011;1561;42.666;23.392;2022-08-01T00:43:07;11.77;;;10.77;;
3101;SDS011;1561;42.666;23.392;2022-08-01T00:45:50;10.70;;;9.70;;
3101;SDS011;1561;42.666;23.392;2022-08-01T00:48:33;10.27;;;9.27;;
3101;SDS011;1561;42.666;23.392;2022-08-01T00:51:10;10.63;;;9.73;;
3101;SDS011;1561;42.666;23.392;2022-08-01T00:53:43;9.77;;;8.98;;
3101;SDS011;1561;42.666;23.392;2022-08-01T00:56:11;10.80;;;9.82;;
3101;SDS011;1561;42.666;23.392;2022-08-01T00:58:43;10.10;;;9.40;;
3101;SDS011;1561;42.666;23.392;2022-08-01T01:01:28;11.00;;;10.00;;
3101;SDS011;1561;42.666;23.392;2022-08-01T01:04:06;10.63;;;9.73;;
3101;SDS011;1561;42.666;23.392;2022-08-01T01:06:48;10.45;;;9.63;;
3101;SDS011;1561;42.666;23.392;2022-08-01T01:09:33;10.57;;;9.68;;
3101;SDS011;1561;42.666;23.392;2022-08-01T01:12:13;10.73;;;9.05;;
3101;SDS011;1561;42.666;23.392;2022-08-01T01:18:32;10.73;;;9.75;;
3101;SDS011;1561;42.666;23.392;2022-08-01T01:24:07;10.13;;;9.32;;
3101;SDS011;1561;42.666;23.392;2022-08-01T01:26:51;9.38;;;8.57;;
3101;SDS011;1561;42.666;23.392;2022-08-01T01:32:31;9.93;;;9.10;;
3101;SDS011;1561;42.666;23.392;2022-08-01T01:35:35;12.88;;;11.90;;
3101;SDS011;1561;42.666;23.392;2022-08-01T01:38:28;12.35;;;11.32;;
3101;SDS011;1561;42.666;23.392;2022-08-01T01:41:16;12.30;;;11.20;;
3101;SDS011;1561;42.666;23.392;2022-08-01T01:43:53;12.53;;;11.53;;
3101;SDS011;1561;42.666;23.392;2022-08-01T01:46:26;12.77;;;11.67;;
3101;SDS011;1561;42.666;23.392;2022-08-01T01:49:11;13.63;;;11.10;;
3101;SDS011;1561;42.666;23.392;2022-08-01T01:51:50;13.10;;;12.03;;
3101;SDS011;1561;42.666;23.392;2022-08-01T01:54:35;11.73;;;10.63;;
3101;SDS011;1561;42.666;23.392;2022-08-01T01:57:21;11.40;;;10.40;;
3101;SDS011;1561;42.666;23.392;2022-08-01T02:00:04;11.10;;;10.20;;
3101;SDS011;1561;42.666;23.392;2022-08-01T02:02:57;12.37;;;11.27;;
3101;SDS011;1561;42.666;23.392;2022-08-01T02:05:37;12.33;;;11.23;;
3101;SDS011;1561;42.666;23.392;2022-08-01T02:08:32;12.10;;;11.10;;
3101;SDS011;1561;42.666;23.392;2022-08-01T02:11:02;12.50;;;11.50;;
3101;SDS011;1561;42.666;23.392;2022-08-01T02:13:53;14.27;;;12.97;;
3101;SDS011;1561;42.666;23.392;2022-08-01T02:16:31;12.63;;;11.53;;
3101;SDS011;1561;42.666;23.392;2022-08-01T02:22:11;11.82;;;10.93;;
3101;SDS011;1561;42.666;23.392;2022-08-01T02:25:03;12.77;;;11.57;;
3101;SDS011;1561;42.666;23.392;2022-08-01T02:27:39;12.50;;;11.30;;
3101;SDS011;1561;42.666;23.392;2022-08-01T02:30:33;10.20;;;9.40;;
3101;SDS011;1561;42.666;23.392;2022-08-01T02:33:33;8.67;;;8.07;;
3101;SDS011;1561;42.666;23.392;2022-08-01T02:39:11;9.40;;;8.50;;
3101;SDS011;1561;42.666;23.392;2022-08-01T02:42:16;8.50;;;7.70;;
3101;SDS011;1561;42.666;23.392;2022-08-01T02:44:54;7.60;;;6.90;;
3101;SDS011;1561;42.666;23.392;2022-08-01T02:47:38;8.73;;;7.10;;
3101;SDS011;1561;42.666;23.392;2022-08-01T02:50:24;10.73;;;9.63;;
3101;SDS011;1561;42.666;23.392;2022-08-01T02:59:21;11.90;;;10.90;;
3101;SDS011;1561;42.666;23.392;2022-08-01T03:02:01;12.27;;;11.17;;
3101;SDS011;1561;42.666;23.392;2022-08-01T03:04:45;13.07;;;11.80;;
3101;SDS011;1561;42.666;23.392;2022-08-01T03:07:49;12.67;;;11.37;;
3101;SDS011;1561;42.666;23.392;2022-08-01T03:10:25;12.00;;;10.87;;
3101;SDS011;1561;42.666;23.392;2022-08-01T03:16:07;8.53;;;7.83;;
3101;SDS011;1561;42.666;23.392;2022-08-01T03:19:11;7.93;;;7.33;;
3101;SDS011;1561;42.666;23.392;2022-08-01T03:21:53;13.50;;;9.90;;
3101;SDS011;1561;42.666;23.392;2022-08-01T03:24:36;10.03;;;8.40;;
3101;SDS011;1561;42.666;23.392;2022-08-01T03:27:11;8.03;;;6.93;;
3101;SDS011;1561;42.666;23.392;2022-08-01T03:30:07;8.00;;;6.60;;
3101;SDS011;1561;42.666;23.392;2022-08-01T03:33:00;9.37;;;8.57;;
3101;SDS011;1561;42.666;23.392;2022-08-01T03:35:56;12.47;;;8.37;;
3101;SDS011;1561;42.666;23.392;2022-08-01T03:39:04;9.27;;;8.10;;
3101;SDS011;1561;42.666;23.392;2022-08-01T03:41:59;12.70;;;8.20;;
3101;SDS011;1561;42.666;23.392;2022-08-01T03:44:47;9.30;;;8.33;;
3101;SDS011;1561;42.666;23.392;2022-08-01T03:50:43;10.05;;;9.05;;
3101;SDS011;1561;42.666;23.392;2022-08-01T03:53:30;8.70;;;7.95;;
3101;SDS011;1561;42.666;23.392;2022-08-01T03:56:12;9.23;;;8.32;;
3101;SDS011;1561;42.666;23.392;2022-08-01T03:59:04;8.95;;;8.05;;
3101;SDS011;1561;42.666;23.392;2022-08-01T04:01:37;7.28;;;6.78;;
3101;SDS011;1561;42.666;23.392;2022-08-01T04:10:30;6.80;;;6.20;;
3101;SDS011;1561;42.666;23.392;2022-08-01T04:13:15;7.00;;;6.32;;
3101;SDS011;1561;42.666;23.392;2022-08-01T04:15:50;6.63;;;6.03;;
3101;SDS011;1561;42.666;23.392;2022-08-01T04:21:22;8.95;;;8.15;;
3101;SDS011;1561;42.666;23.392;2022-08-01T04:24:03;9.20;;;7.57;;
3101;SDS011;1561;42.666;23.392;2022-08-01T04:26:43;8.07;;;7.38;;
3101;SDS011;1561;42.666;23.392;2022-08-01T04:29:22;9.20;;;8.38;;
3101;SDS011;1561;42.666;23.392;2022-08-01T04:32:10;8.40;;;7.65;;
3101;SDS011;1561;42.666;23.392;2022-08-01T04:34:50;7.72;;;7.13;;
3101;SDS011;1561;42.666;23.392;2022-08-01T04:37:28;10.43;;;8.27;;
3101;SDS011;1561;42.666;23.392;2022-08-01T04:40:12;8.75;;;7.85;;
3101;SDS011;1561;42.666;23.392;2022-08-01T04:43:02;7.93;;;7.10;;
3101;SDS011;1561;42.666;23.392;2022-08-01T04:45:47;7.97;;;7.07;;
3101;SDS011;1561;42.666;23.392;2022-08-01T04:48:40;9.30;;;8.48;;
3101;SDS011;1561;42.666;23.392;2022-08-01T04:51:22;10.02;;;8.18;;
3101;SDS011;1561;42.666;23.392;2022-08-01T04:54:06;10.48;;;8.57;;
3101;SDS011;1561;42.666;23.392;2022-08-01T04:57:00;9.15;;;8.25;;
3101;SDS011;1561;42.666;23.392;2022-08-01T04:59:38;10.77;;;8.40;;
3101;SDS011;1561;42.666;23.392;2022-08-01T05:02:10;9.50;;;8.70;;
3101;SDS011;1561;42.666;23.392;2022-08-01T05:04:41;8.93;;;8.02;;
3101;SDS011;1561;42.666;23.392;2022-08-01T05:07:13;9.05;;;8.15;;
3101;SDS011;1561;42.666;23.392;2022-08-01T05:09:47;9.25;;;8.27;;
3101;SDS011;1561;42.666;23.392;2022-08-01T05:12:21;10.05;;;9.02;;
3101;SDS011;1561;42.666;23.392;2022-08-01T05:15:02;9.32;;;8.52;;
3101;SDS011;1561;42.666;23.392;2022-08-01T05:17:31;9.10;;;8.23;;
3101;SDS011;1561;42.666;23.392;2022-08-01T05:20:12;11.45;;;8.27;;
3101;SDS011;1561;42.666;23.392;2022-08-01T05:22:48;14.10;;;8.88;;
3101;SDS011;1561;42.666;23.392;2022-08-01T05:25:20;11.20;;;8.55;;
3101;SDS011;1561;42.666;23.392;2022-08-01T05:27:49;16.13;;;9.27;;
3101;SDS011;1561;42.666;23.392;2022-08-01T05:30:27;8.57;;;7.78;;
3101;SDS011;1561;42.666;23.392;2022-08-01T05:33:01;10.10;;;7.50;;
3101;SDS011;1561;42.666;23.392;2022-08-01T05:35:32;10.77;;;7.53;;
3101;SDS011;1561;42.666;23.392;2022-08-01T05:38:18;10.52;;;7.35;;
3101;SDS011;1561;42.666;23.392;2022-08-01T05:40:46;8.75;;;7.35;;
3101;SDS011;1561;42.666;23.392;2022-08-01T05:43:29;7.72;;;6.20;;
3101;SDS011;1561;42.666;23.392;2022-08-01T05:46:01;7.53;;;6.82;;
3101;SDS011;1561;42.666;23.392;2022-08-01T05:48:30;7.93;;;6.82;;
3101;SDS011;1561;42.666;23.392;2022-08-01T05:51:03;6.85;;;5.25;;
3101;SDS011;1561;42.666;23.392;2022-08-01T05:53:36;10.02;;;6.53;;
3101;SDS011;1561;42.666;23.392;2022-08-01T05:56:10;7.10;;;5.30;;
3101;SDS011;1561;42.666;23.392;2022-08-01T05:58:47;6.65;;;5.43;;
3101;SDS011;1561;42.666;23.392;2022-08-01T06:01:22;9.52;;;5.63;;
3101;SDS011;1561;42.666;23.392;2022-08-01T06:03:53;6.53;;;5.85;;
3101;SDS011;1561;42.666;23.392;2022-08-01T06:06:21;5.53;;;4.88;;
3101;SDS011;1561;42.666;23.392;2022-08-01T06:08:49;4.82;;;4.53;;
3101;SDS011;1561;42.666;23.392;2022-08-01T06:11:33;6.00;;;5.50;;
3101;SDS011;1561;42.666;23.392;2022-08-01T06:14:09;6.68;;;5.15;;
3101;SDS011;1561;42.666;23.392;2022-08-01T06:19:21;6.32;;;4.57;;
3101;SDS011;1561;42.666;23.392;2022-08-01T06:22:01;4.47;;;4.18;;
3101;SDS011;1561;42.666;23.392;2022-08-01T06:24:32;7.75;;;4.80;;
3101;SDS011;1561;42.666;23.392;2022-08-01T06:27:02;4.93;;;4.53;;
3101;SDS011;1561;42.666;23.392;2022-08-01T06:29:37;4.53;;;4.13;;
3101;SDS011;1561;42.666;23.392;2022-08-01T06:32:10;4.95;;;4.53;;
3101;SDS011;1561;42.666;23.392;2022-08-01T06:34:40;4.53;;;4.13;;
3101;SDS011;1561;42.666;23.392;2022-08-01T06:37:17;5.65;;;4.38;;
3101;SDS011;1561;42.666;23.392;2022-08-01T06:39:45;4.72;;;4.32;;
3101;SDS011;1561;42.666;23.392;2022-08-01T06:42:16;3.83;;;3.60;;
3101;SDS011;1561;42.666;23.392;2022-08-01T06:44:59;4.07;;;3.67;;
3101;SDS011;1561;42.666;23.392;2022-08-01T06:47:38;5.03;;;4.50;;
3101;SDS011;1561;42.666;23.392;2022-08-01T06:50:13;4.32;;;4.00;;
3101;SDS011;1561;42.666;23.392;2022-08-01T06:52:46;4.43;;;4.10;;
3101;SDS011;1561;42.666;23.392;2022-08-01T06:55:20;4.50;;;3.83;;
3101;SDS011;1561;42.666;23.392;2022-08-01T06:57:53;6.65;;;5.35;;
3101;SDS011;1561;42.666;23.392;2022-08-01T07:00:24;6.65;;;4.05;;
3101;SDS011;1561;42.666;23.392;2022-08-01T07:02:56;4.90;;;3.42;;
3101;SDS011;1561;42.666;23.392;2022-08-01T07:05:35;4.82;;;4.43;;
3101;SDS011;1561;42.666;23.392;2022-08-01T07:08:03;11.70;;;4.45;;
3101;SDS011;1561;42.666;23.392;2022-08-01T07:10:43;4.65;;;3.92;;
3101;SDS011;1561;42.666;23.392;2022-08-01T07:13:15;5.07;;;4.57;;
3101;SDS011;1561;42.666;23.392;2022-08-01T07:15:50;5.13;;;4.75;;
3101;SDS011;1561;42.666;23.392;2022-08-01T07:18:24;4.13;;;3.83;;
3101;SDS011;1561;42.666;23.392;2022-08-01T07:21:05;4.50;;;4.10;;
3101;SDS011;1561;42.666;23.392;2022-08-01T07:23:35;4.55;;;4.15;;
3101;SDS011;1561;42.666;23.392;2022-08-01T07:26:11;5.60;;;5.10;;
3101;SDS011;1561;42.666;23.392;2022-08-01T07:28:43;4.53;;;4.15;;
3101;SDS011;1561;42.666;23.392;2022-08-01T07:31:11;5.97;;;4.25;;
3101;SDS011;1561;42.666;23.392;2022-08-01T07:33:46;3.80;;;3.50;;
3101;SDS011;1561;42.666;23.392;2022-08-01T07:36:14;6.20;;;4.30;;
3101;SDS011;1561;42.666;23.392;2022-08-01T07:38:46;4.45;;;4.07;;
3101;SDS011;1561;42.666;23.392;2022-08-01T07:41:15;4.65;;;4.00;;
3101;SDS011;1561;42.666;23.392;2022-08-01T07:43:46;4.22;;;4.00;;
3101;SDS011;1561;42.666;23.392;2022-08-01T07:46:14;6.85;;;3.83;;
3101;SDS011;1561;42.666;23.392;2022-08-01T07:48:44;4.13;;;3.78;;
3101;SDS011;1561;42.666;23.392;2022-08-01T07:51:14;5.10;;;4.32;;
3101;SDS011;1561;42.666;23.392;2022-08-01T07:53:44;4.43;;;4.03;;
3101;SDS011;1561;42.666;23.392;2022-08-01T07:56:13;4.90;;;4.22;;
3101;SDS011;1561;42.666;23.392;2022-08-01T07:58:41;4.40;;;3.70;;
3101;SDS011;1561;42.666;23.392;2022-08-01T08:01:11;4.35;;;4.05;;
3101;SDS011;1561;42.666;23.392;2022-08-01T08:03:42;4.43;;;4.07;;
3101;SDS011;1561;42.666;23.392;2022-08-01T08:06:16;4.47;;;4.05;;
3101;SDS011;1561;42.666;23.392;2022-08-01T08:08:47;5.07;;;4.03;;
3101;SDS011;1561;42.666;23.392;2022-08-01T08:11:16;7.55;;;4.28;;
3101;SDS011;1561;42.666;23.392;2022-08-01T08:13:43;7.75;;;5.25;;
3101;SDS011;1561;42.666;23.392;2022-08-01T08:16:11;7.10;;;5.13;;
3101;SDS011;1561;42.666;23.392;2022-08-01T08:18:46;7.05;;;4.57;;
3101;SDS011;1561;42.666;23.392;2022-08-01T08:21:18;7.47;;;4.65;;
3101;SDS011;1561;42.666;23.392;2022-08-01T08:23:47;5.03;;;4.63;;
3101;SDS011;1561;42.666;23.392;2022-08-01T08:26:32;4.43;;;4.07;;
3101;SDS011;1561;42.666;23.392;2022-08-01T08:29:03;6.30;;;5.70;;
3101;SDS011;1561;42.666;23.392;2022-08-01T08:31:30;4.63;;;4.18;;
3101;SDS011;1561;42.666;23.392;2022-08-01T08:33:59;5.55;;;4.40;;
3101;SDS011;1561;42.666;23.392;2022-08-01T08:36:33;5.18;;;4.80;;
3101;SDS011;1561;42.666;23.392;2022-08-01T08:39:11;8.30;;;5.18;;
3101;SDS011;1561;42.666;23.392;2022-08-01T08:41:37;5.43;;;4.93;;
3101;SDS011;1561;42.666;23.392;2022-08-01T08:44:06;4.45;;;4.05;;
3101;SDS011;1561;42.666;23.392;2022-08-01T08:46:40;5.93;;;5.45;;
3101;SDS011;1561;42.666;23.392;2022-08-01T08:49:09;5.13;;;4.43;;
3101;SDS011;1561;42.666;23.392;2022-08-01T08:51:39;5.57;;;5.07;;
3101;SDS011;1561;42.666;23.392;2022-08-01T08:54:18;9.52;;;5.55;;
3101;SDS011;1561;42.666;23.392;2022-08-01T08:56:49;7.20;;;5.20;;
3101;SDS011;1561;42.666;23.392;2022-08-01T08:59:21;5.93;;;4.03;;
3101;SDS011;1561;42.666;23.392;2022-08-01T09:01:57;6.97;;;5.25;;
3101;SDS011;1561;42.666;23.392;2022-08-01T09:04:29;9.13;;;4.55;;
3101;SDS011;1561;42.666;23.392;2022-08-01T09:06:58;4.95;;;4.28;;
3101;SDS011;1561;42.666;23.392;2022-08-01T09:09:29;6.00;;;4.43;;
3101;SDS011;1561;42.666;23.392;2022-08-01T09:11:56;4.43;;;4.13;;
3101;SDS011;1561;42.666;23.392;2022-08-01T09:14:31;5.28;;;4.75;;
3101;SDS011;1561;42.666;23.392;2022-08-01T09:17:04;4.43;;;4.03;;
3101;SDS011;1561;42.666;23.392;2022-08-01T09:19:41;4.03;;;3.67;;
3101;SDS011;1561;42.666;23.392;2022-08-01T09:22:17;5.68;;;5.13;;
3101;SDS011;1561;42.666;23.392;2022-08-01T09:24:56;9.50;;;6.68;;
3101;SDS011;1561;42.666;23.392;2022-08-01T09:27:25;4.30;;;4.00;;
3101;SDS011;1561;42.666;23.392;2022-08-01T09:29:54;5.13;;;4.10;;
3101;SDS011;1561;42.666;23.392;2022-08-01T09:32:35;3.92;;;3.72;;
3101;SDS011;1561;42.666;23.392;2022-08-01T09:37:50;4.65;;;3.47;;
3101;SDS011;1561;42.666;23.392;2022-08-01T09:40:17;4.38;;;3.97;;
3101;SDS011;1561;42.666;23.392;2022-08-01T09:42:47;3.50;;;3.30;;
3101;SDS011;1561;42.666;23.392;2022-08-01T09:45:31;3.80;;;3.50;;
3101;SDS011;1561;42.666;23.392;2022-08-01T09:48:05;3.45;;;3.25;;
3101;SDS011;1561;42.666;23.392;2022-08-01T09:50:40;3.97;;;3.65;;
3101;SDS011;1561;42.666;23.392;2022-08-01T09:53:12;4.07;;;3.22;;
3101;SDS011;1561;42.666;23.392;2022-08-01T09:55:40;4.32;;;3.70;;
3101;SDS011;1561;42.666;23.392;2022-08-01T09:58:09;4.13;;;3.78;;
3101;SDS011;1561;42.666;23.392;2022-08-01T10:00:40;6.05;;;3.70;;
3101;SDS011;1561;42.666;23.392;2022-08-01T10:03:19;3.95;;;3.60;;
3101;SDS011;1561;42.666;23.392;2022-08-01T10:05:51;4.32;;;4.03;;
3101;SDS011;1561;42.666;23.392;2022-08-01T10:08:27;3.70;;;3.50;;
3101;SDS011;1561;42.666;23.392;2022-08-01T10:11:05;3.88;;;3.58;;
3101;SDS011;1561;42.666;23.392;2022-08-01T10:13:40;3.85;;;3.65;;
3101;SDS011;1561;42.666;23.392;2022-08-01T10:16:08;5.35;;;4.28;;
3101;SDS011;1561;42.666;23.392;2022-08-01T10:18:49;3.47;;;3.28;;
3101;SDS011;1561;42.666;23.392;2022-08-01T10:21:18;4.60;;;4.20;;
3101;SDS011;1561;42.666;23.392;2022-08-01T10:23:51;4.57;;;4.28;;
3101;SDS011;1561;42.666;23.392;2022-08-01T10:26:20;3.72;;;3.50;;
3101;SDS011;1561;42.666;23.392;2022-08-01T10:28:51;4.35;;;4.00;;
3101;SDS011;1561;42.666;23.392;2022-08-01T10:31:20;4.03;;;3.72;;
3101;SDS011;1561;42.666;23.392;2022-08-01T10:33:47;3.97;;;3.67;;
3101;SDS011;1561;42.666;23.392;2022-08-01T10:36:17;4.50;;;4.20;;
3101;SDS011;1561;42.666;23.392;2022-08-01T10:38:46;4.50;;;4.20;;
3101;SDS011;1561;42.666;23.392;2022-08-01T10:41:16;5.15;;;4.70;;
3101;SDS011;1561;42.666;23.392;2022-08-01T10:43:48;4.13;;;3.60;;
3101;SDS011;1561;42.666;23.392;2022-08-01T10:46:24;7.40;;;5.38;;
3101;SDS011;1561;42.666;23.392;2022-08-01T10:48:54;6.05;;;4.60;;
3101;SDS011;1561;42.666;23.392;2022-08-01T10:51:27;4.05;;;3.75;;
3101;SDS011;1561;42.666;23.392;2022-08-01T10:53:55;4.70;;;4.40;;
3101;SDS011;1561;42.666;23.392;2022-08-01T10:56:29;4.05;;;3.78;;
3101;SDS011;1561;42.666;23.392;2022-08-01T10:59:09;5.03;;;3.78;;
3101;SDS011;1561;42.666;23.392;2022-08-01T11:01:36;3.67;;;3.42;;
3101;SDS011;1561;42.666;23.392;2022-08-01T11:04:08;3.63;;;3.42;;
3101;SDS011;1561;42.666;23.392;2022-08-01T11:06:40;3.40;;;3.20;;
3101;SDS011;1561;42.666;23.392;2022-08-01T11:09:22;4.25;;;3.60;;
3101;SDS011;1561;42.666;23.392;2022-08-01T11:12:01;3.33;;;3.17;;
3101;SDS011;1561;42.666;23.392;2022-08-01T11:17:39;4.07;;;3.78;;
3101;SDS011;1561;42.666;23.392;2022-08-01T11:20:12;4.32;;;4.03;;
3101;SDS011;1561;42.666;23.392;2022-08-01T11:28:45;4.53;;;4.22;;
3101;SDS011;1561;42.666;23.392;2022-08-01T11:31:31;4.32;;;4.07;;
3101;SDS011;1561;42.666;23.392;2022-08-01T11:33:59;3.90;;;3.60;;
3101;SDS011;1561;42.666;23.392;2022-08-01T11:36:27;4.93;;;4.57;;
3101;SDS011;1561;42.666;23.392;2022-08-01T11:39:13;4.47;;;4.07;;
3101;SDS011;1561;42.666;23.392;2022-08-01T11:41:47;5.10;;;4.80;;
3101;SDS011;1561;42.666;23.392;2022-08-01T11:44:20;5.53;;;5.13;;
3101;SDS011;1561;42.666;23.392;2022-08-01T11:46:58;3.83;;;3.63;;
3101;SDS011;1561;42.666;23.392;2022-08-01T11:49:43;5.50;;;5.10;;
3101;SDS011;1561;42.666;23.392;2022-08-01T11:52:23;4.85;;;4.45;;
3101;SDS011;1561;42.666;23.392;2022-08-01T11:54:54;5.20;;;4.80;;
3101;SDS011;1561;42.666;23.392;2022-08-01T11:57:37;4.28;;;3.97;;
3101;SDS011;1561;42.666;23.392;2022-08-01T12:00:13;4.20;;;3.90;;
3101;SDS011;1561;42.666;23.392;2022-08-01T12:02:43;4.60;;;4.30;;
3101;SDS011;1561;42.666;23.392;2022-08-01T12:05:13;4.90;;;4.50;;
3101;SDS011;1561;42.666;23.392;2022-08-01T12:07:47;4.47;;;4.07;;
3101;SDS011;1561;42.666;23.392;2022-08-01T12:10:17;5.25;;;4.80;;
3101;SDS011;1561;42.666;23.392;2022-08-01T12:12:50;5.10;;;4.70;;
3101;SDS011;1561;42.666;23.392;2022-08-01T12:15:24;7.82;;;7.03;;
3101;SDS011;1561;42.666;23.392;2022-08-01T12:18:00;4.90;;;4.60;;
3101;SDS011;1561;42.666;23.392;2022-08-01T12:20:31;7.22;;;5.72;;
3101;SDS011;1561;42.666;23.392;2022-08-01T12:23:01;6.18;;;5.22;;
3101;SDS011;1561;42.666;23.392;2022-08-01T12:25:32;6.07;;;5.47;;
3101;SDS011;1561;42.666;23.392;2022-08-01T12:28:07;6.25;;;5.75;;
3101;SDS011;1561;42.666;23.392;2022-08-01T12:30:41;5.55;;;5.07;;
3101;SDS011;1561;42.666;23.392;2022-08-01T12:33:17;7.30;;;6.80;;
3101;SDS011;1561;42.666;23.392;2022-08-01T12:35:45;5.50;;;5.20;;
3101;SDS011;1561;42.666;23.392;2022-08-01T12:38:21;5.25;;;4.95;;
3101;SDS011;1561;42.666;23.392;2022-08-01T12:40:50;4.80;;;4.40;;
3101;SDS011;1561;42.666;23.392;2022-08-01T12:43:20;5.30;;;5.00;;
3101;SDS011;1561;42.666;23.392;2022-08-01T12:45:53;5.05;;;4.75;;
3101;SDS011;1561;42.666;23.392;2022-08-01T12:48:28;5.82;;;5.15;;
3101;SDS011;1561;42.666;23.392;2022-08-01T12:50:57;5.38;;;4.93;;
3101;SDS011;1561;42.666;23.392;2022-08-01T12:53:33;4.75;;;4.45;;
3101;SDS011;1561;42.666;23.392;2022-08-01T12:56:05;5.22;;;4.93;;
3101;SDS011;1561;42.666;23.392;2022-08-01T12:58:36;6.22;;;5.18;;
3101;SDS011;1561;42.666;23.392;2022-08-01T13:01:11;6.00;;;5.40;;
3101;SDS011;1561;42.666;23.392;2022-08-01T13:03:39;6.20;;;5.55;;
3101;SDS011;1561;42.666;23.392;2022-08-01T13:06:22;6.05;;;5.10;;
3101;SDS011;1561;42.666;23.392;2022-08-01T13:08:52;5.60;;;5.20;;
3101;SDS011;1561;42.666;23.392;2022-08-01T13:11:22;6.28;;;5.88;;
3101;SDS011;1561;42.666;23.392;2022-08-01T13:13:53;5.93;;;5.53;;
3101;SDS011;1561;42.666;23.392;2022-08-01T13:16:24;5.07;;;4.65;;
3101;SDS011;1561;42.666;23.392;2022-08-01T13:18:56;5.90;;;5.47;;
3101;SDS011;1561;42.666;23.392;2022-08-01T13:21:24;8.73;;;7.82;;
3101;SDS011;1561;42.666;23.392;2022-08-01T13:24:00;5.57;;;5.13;;
3101;SDS011;1561;42.666;23.392;2022-08-01T13:26:40;5.13;;;4.82;;
3101;SDS011;1561;42.666;23.392;2022-08-01T13:29:11;5.85;;;5.32;;
3101;SDS011;1561;42.666;23.392;2022-08-01T13:31:42;4.53;;;4.32;;
3101;SDS011;1561;42.666;23.392;2022-08-01T13:34:11;5.57;;;5.07;;
3101;SDS011;1561;42.666;23.392;2022-08-01T13:36:44;4.82;;;4.63;;
3101;SDS011;1561;42.666;23.392;2022-08-01T13:39:15;4.88;;;4.57;;
3101;SDS011;1561;42.666;23.392;2022-08-01T13:42:00;5.45;;;5.15;;
3101;SDS011;1561;42.666;23.392;2022-08-01T13:44:31;5.95;;;5.25;;
3101;SDS011;1561;42.666;23.392;2022-08-01T13:47:09;4.70;;;4.40;;
3101;SDS011;1561;42.666;23.392;2022-08-01T13:49:36;4.82;;;4.43;;
3101;SDS011;1561;42.666;23.392;2022-08-01T13:52:04;5.85;;;5.13;;
3101;SDS011;1561;42.666;23.392;2022-08-01T13:54:36;5.63;;;5.20;;
3101;SDS011;1561;42.666;23.392;2022-08-01T13:57:03;5.28;;;4.65;;
3101;SDS011;1561;42.666;23.392;2022-08-01T13:59:35;6.07;;;5.53;;
3101;SDS011;1561;42.666;23.392;2022-08-01T14:02:05;13.60;;;11.55;;
3101;SDS011;1561;42.666;23.392;2022-08-01T14:04:36;5.43;;;5.03;;
3101;SDS011;1561;42.666;23.392;2022-08-01T14:07:03;5.32;;;4.97;;
3101;SDS011;1561;42.666;23.392;2022-08-01T14:09:32;5.50;;;5.10;;
3101;SDS011;1561;42.666;23.392;2022-08-01T14:12:02;5.00;;;4.70;;
3101;SDS011;1561;42.666;23.392;2022-08-01T14:14:33;6.50;;;5.93;;
3101;SDS011;1561;42.666;23.392;2022-08-01T14:17:00;4.88;;;4.47;;
3101;SDS011;1561;42.666;23.392;2022-08-01T14:19:35;5.38;;;4.80;;
3101;SDS011;1561;42.666;23.392;2022-08-01T14:22:02;7.97;;;4.68;;
3101;SDS011;1561;42.666;23.392;2022-08-01T14:24:29;5.30;;;5.00;;
3101;SDS011;1561;42.666;23.392;2022-08-01T14:26:56;6.05;;;5.55;;
3101;SDS011;1561;42.666;23.392;2022-08-01T14:29:37;5.38;;;4.97;;
3101;SDS011;1561;42.666;23.392;2022-08-01T14:32:05;5.53;;;5.22;;
3101;SDS011;1561;42.666;23.392;2022-08-01T14:34:36;5.75;;;5.13;;
3101;SDS011;1561;42.666;23.392;2022-08-01T14:37:04;5.38;;;4.97;;
3101;SDS011;1561;42.666;23.392;2022-08-01T14:39:46;7.93;;;6.47;;
3101;SDS011;1561;42.666;23.392;2022-08-01T14:42:14;5.22;;;4.93;;
3101;SDS011;1561;42.666;23.392;2022-08-01T14:44:43;6.93;;;4.55;;
3101;SDS011;1561;42.666;23.392;2022-08-01T14:47:19;4.13;;;3.92;;
3101;SDS011;1561;42.666;23.392;2022-08-01T14:49:55;6.43;;;4.93;;
3101;SDS011;1561;42.666;23.392;2022-08-01T14:52:25;5.30;;;4.88;;
3101;SDS011;1561;42.666;23.392;2022-08-01T14:54:52;5.63;;;5.22;;
3101;SDS011;1561;42.666;23.392;2022-08-01T14:57:25;4.80;;;4.50;;
3101;SDS011;1561;42.666;23.392;2022-08-01T14:59:53;7.32;;;4.22;;
3101;SDS011;1561;42.666;23.392;2022-08-01T15:02:21;5.25;;;4.75;;
3101;SDS011;1561;42.666;23.392;2022-08-01T15:04:54;5.00;;;4.70;;
3101;SDS011;1561;42.666;23.392;2022-08-01T15:07:23;7.43;;;6.68;;
3101;SDS011;1561;42.666;23.392;2022-08-01T15:09:51;7.88;;;6.95;;
3101;SDS011;1561;42.666;23.392;2022-08-01T15:12:23;4.53;;;4.25;;
3101;SDS011;1561;42.666;23.392;2022-08-01T15:14:50;4.97;;;4.57;;
3101;SDS011;1561;42.666;23.392;2022-08-01T15:17:23;4.72;;;4.43;;
3101;SDS011;1561;42.666;23.392;2022-08-01T15:19:58;4.25;;;4.03;;
3101;SDS011;1561;42.666;23.392;2022-08-01T15:22:27;5.20;;;4.80;;
3101;SDS011;1561;42.666;23.392;2022-08-01T15:25:04;4.05;;;3.78;;
3101;SDS011;1561;42.666;23.392;2022-08-01T15:27:32;18.27;;;12.15;;
3101;SDS011;1561;42.666;23.392;2022-08-01T15:30:00;19.40;;;12.48;;
3101;SDS011;1561;42.666;23.392;2022-08-01T15:32:40;7.40;;;6.72;;
3101;SDS011;1561;42.666;23.392;2022-08-01T15:35:23;4.95;;;4.65;;
3101;SDS011;1561;42.666;23.392;2022-08-01T15:37:54;5.03;;;4.63;;
3101;SDS011;1561;42.666;23.392;2022-08-01T15:40:21;5.03;;;4.82;;
3101;SDS011;1561;42.666;23.392;2022-08-01T15:42:49;4.00;;;3.80;;
3101;SDS011;1561;42.666;23.392;2022-08-01T15:45:35;5.05;;;4.65;;
3101;SDS011;1561;42.666;23.392;2022-08-01T15:48:04;5.50;;;5.00;;
3101;SDS011;1561;42.666;23.392;2022-08-01T15:50:35;5.20;;;4.80;;
3101;SDS011;1561;42.666;23.392;2022-08-01T15:53:21;6.63;;;6.03;;
3101;SDS011;1561;42.666;23.392;2022-08-01T15:55:53;6.35;;;5.70;;
3101;SDS011;1561;42.666;23.392;2022-08-01T15:58:22;4.90;;;4.50;;
3101;SDS011;1561;42.666;23.392;2022-08-01T16:00:52;4.47;;;4.28;;
3101;SDS011;1561;42.666;23.392;2022-08-01T16:03:33;4.82;;;4.53;;
3101;SDS011;1561;42.666;23.392;2022-08-01T16:06:02;5.20;;;4.82;;
3101;SDS011;1561;42.666;23.392;2022-08-01T16:08:34;4.85;;;4.55;;
3101;SDS011;1561;42.666;23.392;2022-08-01T16:11:01;5.40;;;5.10;;
3101;SDS011;1561;42.666;23.392;2022-08-01T16:13:29;5.55;;;5.15;;
3101;SDS011;1561;42.666;23.392;2022-08-01T16:15:59;5.78;;;5.22;;
3101;SDS011;1561;42.666;23.392;2022-08-01T16:18:30;4.88;;;4.57;;
3101;SDS011;1561;42.666;23.392;2022-08-01T16:20:57;5.20;;;4.80;;
3101;SDS011;1561;42.666;23.392;2022-08-01T16:23:30;5.70;;;4.93;;
3101;SDS011;1561;42.666;23.392;2022-08-01T16:25:58;6.35;;;4.75;;
3101;SDS011;1561;42.666;23.392;2022-08-01T16:28:33;5.30;;;4.90;;
3101;SDS011;1561;42.666;23.392;2022-08-01T16:31:05;5.22;;;4.93;;
3101;SDS011;1561;42.666;23.392;2022-08-01T16:33:37;4.90;;;4.55;;
3101;SDS011;1561;42.666;23.392;2022-08-01T16:36:05;6.55;;;5.65;;
3101;SDS011;1561;42.666;23.392;2022-08-01T16:38:37;5.15;;;4.43;;
3101;SDS011;1561;42.666;23.392;2022-08-01T16:41:10;5.70;;;5.30;;